createdAt,value
2019-05-25T00:00:55.927Z,3.05
2019-05-25T00:03:27.191Z,3.12
2019-05-25T00:05:55.605Z,3.00
2019-05-25T00:08:24.067Z,3.85
2019-05-25T00:10:52.784Z,4.10
2019-05-25T00:13:21.225Z,3.50
2019-05-25T00:15:49.657Z,3.45
2019-05-25T00:18:18.293Z,3.92
2019-05-25T00:20:46.718Z,3.55
2019-05-25T00:23:15.146Z,3.70
2019-05-25T00:25:43.608Z,4.05
2019-05-25T00:28:12.235Z,3.70
2019-05-25T00:30:40.748Z,3.87
2019-05-25T00:33:09.495Z,4.50
2019-05-25T00:35:37.890Z,4.25
2019-05-25T00:38:06.354Z,4.45
2019-05-25T00:40:35.113Z,4.80
2019-05-25T00:43:03.552Z,4.45
2019-05-25T00:45:31.988Z,4.25
2019-05-25T00:48:00.432Z,3.90
2019-05-25T00:50:29.181Z,4.37
2019-05-25T00:52:57.621Z,4.30
2019-05-25T00:55:26.165Z,4.45
2019-05-25T00:57:54.601Z,4.28
2019-05-25T01:00:23.352Z,4.62
2019-05-25T01:02:52.171Z,4.75
2019-05-25T01:05:20.718Z,4.40
2019-05-25T01:07:49.152Z,4.75
2019-05-25T01:10:18.118Z,5.50
2019-05-25T01:12:46.548Z,4.62
2019-05-25T01:15:15.845Z,4.85
2019-05-25T01:17:44.959Z,5.20
2019-05-25T01:20:15.245Z,5.12
2019-05-25T01:22:43.676Z,4.72
2019-05-25T01:25:13.739Z,4.65
2019-05-25T01:27:42.174Z,4.78
2019-05-25T01:30:12.090Z,5.85
2019-05-25T01:32:40.784Z,4.80
2019-05-25T01:35:09.546Z,5.15
2019-05-25T01:37:38.332Z,4.85
2019-05-25T01:40:07.523Z,4.83
2019-05-25T01:42:35.962Z,4.33
2019-05-25T01:45:05.926Z,4.72
2019-05-25T01:47:34.754Z,5.17
2019-05-25T01:50:03.354Z,4.67
2019-05-25T01:52:32.072Z,5.00
2019-05-25T01:55:00.805Z,5.53
2019-05-25T01:57:29.230Z,4.83
2019-05-25T01:59:57.653Z,4.60
2019-05-25T02:02:26.102Z,5.10
2019-05-25T02:04:54.525Z,4.85
2019-05-25T02:07:23.112Z,4.40
2019-05-25T02:09:51.896Z,4.83
2019-05-25T02:12:20.450Z,5.10
2019-05-25T02:14:48.931Z,4.33
2019-05-25T02:17:17.654Z,4.67
2019-05-25T02:19:46.089Z,4.47
2019-05-25T02:22:14.511Z,4.80
2019-05-25T02:24:42.952Z,5.28
2019-05-25T02:27:11.461Z,4.97
2019-05-25T02:29:39.902Z,5.45
2019-05-25T02:32:08.607Z,5.45
2019-05-25T02:34:37.039Z,5.40
2019-05-25T02:37:05.470Z,5.47
2019-05-25T02:39:33.990Z,5.67
2019-05-25T02:42:02.639Z,5.10
2019-05-25T02:44:31.089Z,5.85
2019-05-25T02:46:59.523Z,5.47
2019-05-25T02:49:28.113Z,5.78
2019-05-25T02:51:56.827Z,5.45
2019-05-25T02:54:25.256Z,5.08
2019-05-25T02:56:53.679Z,5.67
2019-05-25T02:59:22.274Z,5.42
2019-05-25T03:01:50.770Z,6.17
2019-05-25T03:04:19.200Z,5.40
2019-05-25T03:06:47.832Z,5.78
2019-05-25T03:09:18.136Z,5.33
2019-05-25T03:11:46.780Z,5.33
2019-05-25T03:14:16.556Z,5.25
2019-05-25T03:16:44.998Z,5.05
2019-05-25T03:19:13.436Z,5.20
2019-05-25T03:21:42.090Z,5.22
2019-05-25T03:24:10.514Z,5.53
2019-05-25T03:26:38.950Z,5.40
2019-05-25T03:29:07.527Z,5.55
2019-05-25T03:31:35.950Z,5.17
2019-05-25T03:34:04.499Z,5.10
2019-05-25T03:36:33.010Z,4.95
2019-05-25T03:39:01.811Z,5.17
2019-05-25T03:41:30.226Z,5.72
2019-05-25T03:44:00.326Z,5.67
2019-05-25T03:46:28.767Z,6.25
2019-05-25T03:48:57.261Z,5.12
2019-05-25T03:51:25.918Z,6.70
2019-05-25T03:53:54.340Z,6.65
2019-05-25T03:56:22.771Z,6.15
2019-05-25T03:58:51.259Z,6.10
2019-05-25T04:01:19.701Z,5.97
2019-05-25T04:03:48.457Z,5.70
2019-05-25T04:06:16.913Z,5.90
2019-05-25T04:08:45.339Z,6.03
2019-05-25T04:11:13.758Z,5.45
2019-05-25T04:13:42.561Z,5.47
2019-05-25T04:16:11.700Z,5.05
2019-05-25T04:18:40.134Z,4.97
2019-05-25T04:21:08.916Z,5.10
2019-05-25T04:23:37.355Z,5.70
2019-05-25T04:26:19.584Z,5.42
2019-05-25T04:28:35.949Z,5.15
2019-05-25T04:31:04.380Z,5.30
2019-05-25T04:33:32.813Z,5.30
2019-05-25T04:36:01.268Z,6.17
2019-05-25T04:38:29.699Z,5.25
2019-05-25T04:40:58.126Z,6.37
2019-05-25T04:43:26.590Z,5.78
2019-05-25T04:45:55.165Z,5.62
2019-05-25T04:48:23.590Z,5.47
2019-05-25T04:50:52.150Z,5.55
2019-05-25T04:53:20.598Z,5.08
2019-05-25T04:55:49.021Z,5.47
2019-05-25T04:58:17.587Z,5.72
2019-05-25T05:00:46.028Z,5.20
2019-05-25T05:03:14.451Z,4.58
2019-05-25T05:05:43.224Z,5.40
2019-05-25T05:08:11.651Z,5.22
2019-05-25T05:10:40.089Z,4.55
2019-05-25T05:13:08.669Z,4.78
2019-05-25T05:15:37.100Z,5.28
2019-05-25T05:18:05.782Z,4.62
2019-05-25T05:20:34.313Z,4.25
2019-05-25T05:23:02.741Z,4.70
2019-05-25T05:25:31.178Z,4.30
2019-05-25T05:28:01.281Z,4.87
2019-05-25T05:30:34.112Z,4.70
2019-05-25T05:33:02.976Z,5.00
2019-05-25T05:35:32.996Z,4.37
2019-05-25T05:38:04.593Z,4.00
2019-05-25T05:40:33.207Z,4.53
2019-05-25T05:43:05.028Z,4.05
2019-05-25T05:45:35.971Z,3.92
2019-05-25T05:48:05.141Z,3.58
2019-05-25T05:50:36.940Z,3.65
2019-05-25T05:53:05.656Z,3.58
2019-05-25T05:55:34.148Z,3.80
2019-05-25T05:58:02.686Z,3.30
2019-05-25T06:00:31.313Z,3.25
2019-05-25T06:02:59.781Z,3.40
2019-05-25T06:05:28.673Z,3.60
2019-05-25T06:07:57.276Z,3.75
2019-05-25T06:10:25.720Z,3.10
2019-05-25T06:12:54.345Z,3.40
2019-05-25T06:15:22.838Z,3.72
2019-05-25T06:17:51.560Z,3.25
2019-05-25T06:20:20.915Z,2.92
2019-05-25T06:22:49.670Z,3.62
2019-05-25T06:25:18.467Z,3.30
2019-05-25T06:27:48.265Z,3.45
2019-05-25T06:30:18.183Z,3.10
2019-05-25T06:32:46.623Z,2.75
2019-05-25T06:35:16.420Z,3.08
2019-05-25T06:37:45.273Z,2.95
2019-05-25T06:40:15.516Z,3.55
2019-05-25T06:42:44.701Z,2.70
2019-05-25T06:45:14.460Z,2.83
2019-05-25T06:47:42.891Z,2.67
2019-05-25T06:50:11.977Z,3.20
2019-05-25T06:52:40.423Z,2.55
2019-05-25T06:55:09.488Z,2.95
2019-05-25T06:57:43.342Z,2.42
2019-05-25T07:00:10.302Z,2.90
2019-05-25T07:02:39.098Z,2.50
2019-05-25T07:05:08.229Z,2.60
2019-05-25T07:07:36.675Z,2.20
2019-05-25T07:10:07.755Z,3.00
2019-05-25T07:12:36.541Z,2.47
2019-05-25T07:15:08.710Z,2.30
2019-05-25T07:17:38.105Z,2.50
2019-05-25T07:20:10.166Z,2.20
2019-05-25T07:22:38.823Z,2.10
2019-05-25T07:25:07.879Z,2.00
2019-05-25T07:27:36.486Z,1.70
2019-05-25T07:30:09.073Z,1.70
2019-05-25T07:32:37.691Z,2.00
2019-05-25T07:35:07.445Z,2.35
2019-05-25T07:37:35.869Z,2.47
2019-05-25T07:40:06.525Z,1.80
2019-05-25T07:42:35.329Z,1.57
2019-05-25T07:45:05.717Z,5.75
2019-05-25T07:47:34.299Z,1.85
2019-05-25T07:50:03.284Z,1.42
2019-05-25T07:52:31.796Z,1.42
2019-05-25T07:55:00.375Z,2.00
2019-05-25T07:57:29.291Z,1.80
2019-05-25T07:59:57.716Z,1.65
2019-05-25T08:02:26.148Z,1.57
2019-05-25T08:04:55.078Z,1.52
2019-05-25T08:07:23.502Z,1.67
2019-05-25T08:09:52.180Z,1.67
2019-05-25T08:12:20.745Z,1.47
2019-05-25T08:14:49.166Z,1.70
2019-05-25T08:17:17.604Z,1.30
2019-05-25T08:19:46.241Z,1.55
2019-05-25T08:22:14.674Z,1.42
2019-05-25T08:24:43.116Z,1.75
2019-05-25T08:27:11.645Z,2.22
2019-05-25T08:29:40.074Z,2.15
2019-05-25T08:32:08.683Z,1.77
2019-05-25T08:34:37.538Z,2.10
2019-05-25T08:37:05.961Z,1.92
2019-05-25T08:39:34.446Z,1.72
2019-05-25T08:42:03.184Z,2.10
2019-05-25T08:44:31.598Z,1.67
2019-05-25T08:47:00.020Z,1.52
2019-05-25T08:49:28.526Z,1.50
2019-05-25T08:51:56.901Z,2.20
2019-05-25T08:54:25.370Z,1.15
2019-05-25T08:56:54.289Z,1.17
2019-05-25T08:59:22.736Z,1.42
2019-05-25T09:01:51.196Z,1.22
2019-05-25T09:04:19.928Z,1.30
2019-05-25T09:06:48.370Z,1.05
2019-05-25T09:09:16.801Z,1.35
2019-05-25T09:11:45.381Z,1.40
2019-05-25T09:14:13.836Z,1.17
2019-05-25T09:16:42.327Z,1.55
2019-05-25T09:19:11.001Z,1.17
2019-05-25T09:21:39.478Z,1.10
2019-05-25T09:24:07.953Z,1.20
2019-05-25T09:26:36.432Z,1.12
2019-05-25T09:29:06.036Z,1.00
2019-05-25T09:31:34.621Z,1.25
2019-05-25T09:34:03.087Z,1.12
2019-05-25T09:36:31.564Z,0.95
2019-05-25T09:38:59.985Z,0.80
2019-05-25T09:41:28.584Z,0.95
2019-05-25T09:43:57.143Z,1.00
2019-05-25T09:46:25.626Z,1.10
2019-05-25T09:48:54.186Z,1.45
2019-05-25T09:51:22.694Z,0.95
2019-05-25T09:53:51.284Z,1.00
2019-05-25T09:56:19.765Z,1.00
2019-05-25T09:58:48.276Z,1.17
2019-05-25T10:01:17.904Z,1.00
2019-05-25T10:03:47.104Z,1.40
2019-05-25T10:06:15.903Z,1.20
2019-05-25T10:08:44.736Z,1.27
2019-05-25T10:11:13.483Z,1.00
2019-05-25T10:13:42.042Z,1.27
2019-05-25T10:16:10.471Z,1.30
2019-05-25T10:18:39.153Z,1.40
2019-05-25T10:21:07.582Z,1.30
2019-05-25T10:23:36.005Z,1.67
2019-05-25T10:26:04.717Z,1.40
2019-05-25T10:28:33.454Z,1.60
2019-05-25T10:31:01.884Z,1.30
2019-05-25T10:33:30.354Z,2.37
2019-05-25T10:35:58.786Z,1.47
2019-05-25T10:38:27.372Z,1.47
2019-05-25T10:40:58.505Z,1.50
2019-05-25T10:43:26.075Z,1.20
2019-05-25T10:45:54.501Z,1.65
2019-05-25T10:48:23.578Z,1.75
2019-05-25T10:50:51.984Z,1.40
2019-05-25T10:53:20.407Z,1.50
2019-05-25T10:55:49.014Z,1.40
2019-05-25T10:58:17.448Z,1.67
2019-05-25T11:00:45.880Z,1.60
2019-05-25T11:03:14.628Z,1.47
2019-05-25T11:05:43.120Z,1.62
2019-05-25T11:08:11.578Z,1.47
2019-05-25T11:10:40.273Z,1.60
2019-05-25T11:13:08.716Z,1.60
2019-05-25T11:15:37.387Z,1.40
2019-05-25T11:18:06.147Z,1.55
2019-05-25T11:20:34.551Z,1.77
2019-05-25T11:23:03.056Z,1.75
2019-05-25T11:25:31.777Z,1.40
2019-05-25T11:28:00.215Z,0.98
2019-05-25T11:30:28.655Z,1.30
2019-05-25T11:32:57.396Z,1.35
2019-05-25T11:35:25.954Z,1.37
2019-05-25T11:37:54.566Z,1.42
2019-05-25T11:40:23.365Z,1.50
2019-05-25T11:42:51.984Z,1.40
2019-05-25T11:45:21.141Z,1.30
2019-05-25T11:47:52.109Z,1.47
2019-05-25T11:50:21.627Z,1.60
2019-05-25T11:52:50.121Z,1.72
2019-05-25T11:55:18.596Z,1.75
2019-05-25T11:57:47.013Z,1.70
2019-05-25T12:00:25.120Z,1.70
2019-05-25T12:02:48.228Z,2.42
2019-05-25T12:05:16.768Z,2.25
2019-05-25T12:07:45.289Z,2.05
2019-05-25T12:10:14.920Z,1.80
2019-05-25T12:12:43.338Z,1.57
2019-05-25T12:15:13.323Z,2.40
2019-05-25T12:17:41.986Z,1.40
2019-05-25T12:20:10.956Z,2.00
2019-05-25T12:22:39.385Z,1.85
2019-05-25T12:25:08.681Z,2.00
2019-05-25T12:27:37.106Z,1.70
2019-05-25T12:30:09.366Z,1.37
2019-05-25T12:32:38.444Z,1.50
2019-05-25T12:35:07.802Z,1.60
2019-05-25T12:37:36.251Z,1.90
2019-05-25T12:40:06.956Z,1.57
2019-05-25T12:42:35.447Z,2.12
2019-05-25T12:45:04.835Z,2.10
2019-05-25T12:47:33.290Z,2.00
2019-05-25T12:50:01.747Z,2.10
2019-05-25T12:52:30.482Z,1.98
2019-05-25T12:54:59.170Z,1.75
2019-05-25T12:57:27.601Z,2.17
2019-05-25T12:59:56.026Z,2.25
2019-05-25T13:02:24.547Z,1.70
2019-05-25T13:04:53.157Z,1.80
2019-05-25T13:07:21.659Z,2.20
2019-05-25T13:09:50.125Z,1.85
2019-05-25T13:12:18.824Z,2.12
2019-05-25T13:14:47.831Z,2.20
2019-05-25T13:17:16.391Z,1.70
2019-05-25T13:19:44.827Z,1.70
2019-05-25T13:22:13.297Z,1.75
2019-05-25T13:24:41.791Z,1.70
2019-05-25T13:27:10.342Z,1.45
2019-05-25T13:29:38.768Z,1.80
2019-05-25T13:32:07.315Z,1.82
2019-05-25T13:34:35.749Z,2.10
2019-05-25T13:37:04.641Z,2.52
2019-05-25T13:39:33.550Z,2.02
2019-05-25T13:42:02.000Z,1.92
2019-05-25T13:44:30.453Z,1.77
2019-05-25T13:46:58.942Z,2.40
2019-05-25T13:49:27.425Z,1.90
2019-05-25T13:51:55.897Z,1.77
2019-05-25T13:54:24.563Z,1.98
2019-05-25T13:56:53.007Z,1.60
2019-05-25T13:59:21.752Z,1.72
2019-05-25T14:01:50.401Z,1.52
2019-05-25T14:04:18.914Z,2.05
2019-05-25T14:06:47.427Z,1.57
2019-05-25T14:09:16.128Z,1.80
2019-05-25T14:11:44.595Z,1.45
2019-05-25T14:14:13.026Z,1.80
2019-05-25T14:16:41.579Z,1.70
2019-05-25T14:19:10.219Z,1.57
2019-05-25T14:21:38.666Z,1.72
2019-05-25T14:24:07.268Z,1.50
2019-05-25T14:26:35.670Z,1.90
2019-05-25T14:29:04.256Z,2.67
2019-05-25T14:31:44.934Z,1.80
2019-05-25T14:34:02.969Z,1.92
2019-05-25T14:36:31.646Z,7.25
2019-05-25T14:39:00.096Z,5.30
2019-05-25T14:41:28.520Z,2.10
2019-05-25T14:43:57.012Z,2.05
2019-05-25T14:46:28.215Z,1.67
2019-05-25T14:48:55.963Z,1.77
2019-05-25T14:51:24.717Z,1.50
2019-05-25T14:53:53.355Z,1.70
2019-05-25T14:56:21.784Z,1.75
2019-05-25T14:58:50.714Z,1.50
2019-05-25T15:01:19.437Z,1.57
2019-05-25T15:03:47.866Z,1.70
2019-05-25T15:06:20.691Z,1.47
2019-05-25T15:08:46.546Z,1.77
2019-05-25T15:11:15.070Z,1.50
2019-05-25T15:13:43.495Z,1.40
2019-05-25T15:16:12.121Z,1.82
2019-05-25T15:18:40.553Z,1.40
2019-05-25T15:21:09.301Z,1.60
2019-05-25T15:23:37.989Z,1.60
2019-05-25T15:26:06.418Z,1.70
2019-05-25T15:28:34.886Z,1.50
2019-05-25T15:31:03.504Z,1.52
2019-05-25T15:33:31.982Z,2.10
2019-05-25T15:36:00.407Z,1.90
2019-05-25T15:38:28.868Z,1.95
2019-05-25T15:40:57.287Z,1.82
2019-05-25T15:43:25.731Z,1.77
2019-05-25T15:45:54.411Z,1.60
2019-05-25T15:48:26.124Z,1.45
2019-05-25T15:50:52.990Z,1.60
2019-05-25T15:53:21.702Z,1.98
2019-05-25T15:55:50.166Z,1.67
2019-05-25T15:58:18.808Z,2.20
2019-05-25T16:00:51.890Z,2.27
2019-05-25T16:03:20.904Z,1.52
2019-05-25T16:05:49.879Z,1.70
2019-05-25T16:08:20.356Z,1.52
2019-05-25T16:10:48.799Z,1.60
2019-05-25T16:13:17.483Z,1.70
2019-05-25T16:15:46.030Z,1.62
2019-05-25T16:18:14.441Z,1.72
2019-05-25T16:20:42.884Z,1.70
2019-05-25T16:23:11.722Z,1.50
2019-05-25T16:25:40.178Z,1.40
2019-05-25T16:28:08.593Z,1.75
2019-05-25T16:30:37.543Z,1.60
2019-05-25T16:33:14.640Z,2.20
2019-05-25T16:35:36.491Z,1.50
2019-05-25T16:38:05.319Z,2.10
2019-05-25T16:40:33.881Z,1.62
2019-05-25T16:43:02.380Z,1.72
2019-05-25T16:45:31.293Z,1.70
2019-05-25T16:47:59.780Z,1.52
2019-05-25T16:50:28.206Z,1.70
2019-05-25T16:52:56.942Z,1.55
2019-05-25T16:55:25.360Z,1.87
2019-05-25T16:57:53.998Z,1.90
2019-05-25T17:00:31.409Z,1.50
2019-05-25T17:03:00.395Z,1.47
2019-05-25T17:05:29.349Z,1.90
2019-05-25T17:07:58.294Z,1.62
2019-05-25T17:10:27.186Z,2.08
2019-05-25T17:12:55.634Z,1.90
2019-05-25T17:15:24.352Z,2.62
2019-05-25T17:17:52.773Z,2.20
2019-05-25T17:20:21.784Z,1.80
2019-05-25T17:22:50.390Z,1.80
2019-05-25T17:25:19.194Z,1.55
2019-05-25T17:27:47.913Z,1.45
2019-05-25T17:30:17.181Z,1.52
2019-05-25T17:32:45.709Z,1.60
2019-05-25T17:35:14.630Z,1.60
2019-05-25T17:37:43.648Z,2.00
2019-05-25T17:40:13.477Z,1.67
2019-05-25T17:42:41.922Z,2.05
2019-05-25T17:45:10.708Z,2.00
2019-05-25T17:47:39.140Z,1.80
2019-05-25T17:50:08.495Z,1.82
2019-05-25T17:52:36.939Z,1.80
2019-05-25T17:55:09.179Z,1.80
2019-05-25T17:57:37.660Z,1.67
2019-05-25T18:00:09.118Z,1.87
2019-05-25T18:02:37.606Z,1.62
2019-05-25T18:05:08.072Z,1.80
2019-05-25T18:07:36.552Z,1.75
2019-05-25T18:10:08.715Z,1.75
2019-05-25T18:12:37.242Z,2.05
2019-05-25T18:15:10.342Z,1.60
2019-05-25T18:17:38.989Z,1.82
2019-05-25T18:20:10.274Z,2.42
2019-05-25T18:22:38.761Z,2.10
2019-05-25T18:25:07.657Z,1.57
2019-05-25T18:27:37.828Z,1.57
2019-05-25T18:30:08.273Z,1.70
2019-05-25T18:32:36.823Z,1.32
2019-05-25T18:35:07.263Z,1.47
2019-05-25T18:37:36.137Z,1.40
2019-05-25T18:40:07.434Z,1.40
2019-05-25T18:42:35.869Z,1.70
2019-05-25T18:45:08.725Z,1.47
2019-05-25T18:47:37.351Z,1.90
2019-05-25T18:50:08.318Z,1.70
2019-05-25T18:52:37.115Z,1.63
2019-05-25T18:55:08.192Z,1.52
2019-05-25T18:57:37.082Z,1.47
2019-05-25T19:00:07.685Z,2.00
2019-05-25T19:02:36.122Z,1.37
2019-05-25T19:05:06.310Z,1.50
2019-05-25T19:07:34.840Z,2.08
2019-05-25T19:10:05.408Z,1.57
2019-05-25T19:12:33.948Z,2.08
2019-05-25T19:15:02.428Z,1.60
2019-05-25T19:17:30.916Z,1.62
2019-05-25T19:19:59.654Z,1.60
2019-05-25T19:22:28.071Z,1.65
2019-05-25T19:24:56.491Z,1.90
2019-05-25T19:27:24.932Z,2.12
2019-05-25T19:29:53.396Z,2.10
2019-05-25T19:32:21.839Z,1.80
2019-05-25T19:34:59.838Z,1.85
2019-05-25T19:37:20.558Z,1.40
2019-05-25T19:39:48.988Z,2.08
2019-05-25T19:42:17.576Z,1.85
2019-05-25T19:44:46.019Z,1.67
2019-05-25T19:47:14.443Z,1.60
2019-05-25T19:49:42.955Z,1.75
2019-05-25T19:52:11.612Z,1.80
2019-05-25T19:54:40.134Z,1.45
2019-05-25T19:57:08.774Z,1.40
2019-05-25T19:59:37.220Z,1.50
2019-05-25T20:02:05.682Z,1.60
2019-05-25T20:04:34.228Z,2.00
2019-05-25T20:07:02.653Z,1.62
2019-05-25T20:09:31.092Z,1.70
2019-05-25T20:11:59.661Z,1.75
2019-05-25T20:14:28.088Z,1.70
2019-05-25T20:16:56.606Z,1.67
2019-05-25T20:19:25.320Z,1.85
2019-05-25T20:21:53.968Z,1.90
2019-05-25T20:24:22.391Z,1.75
2019-05-25T20:26:50.917Z,1.67
2019-05-25T20:29:19.348Z,1.70
2019-05-25T20:31:47.790Z,1.90
2019-05-25T20:34:16.335Z,1.80
2019-05-25T20:36:44.752Z,2.10
2019-05-25T20:39:13.176Z,2.20
2019-05-25T20:41:42.058Z,1.90
2019-05-25T20:44:10.491Z,1.80
2019-05-25T20:46:38.916Z,1.80
2019-05-25T20:49:07.500Z,1.42
2019-05-25T20:51:35.959Z,1.90
2019-05-25T20:54:04.637Z,1.85
2019-05-25T20:56:33.089Z,1.85
2019-05-25T20:59:01.932Z,1.98
2019-05-25T21:01:31.095Z,2.33
2019-05-25T21:03:59.535Z,1.70
2019-05-25T21:06:27.975Z,1.85
2019-05-25T21:08:56.412Z,2.08
2019-05-25T21:11:24.897Z,1.80
2019-05-25T21:13:53.422Z,1.85
2019-05-25T21:16:21.866Z,1.80
2019-05-25T21:18:50.408Z,1.90
2019-05-25T21:21:18.818Z,1.80
2019-05-25T21:23:47.271Z,1.70
2019-05-25T21:26:15.835Z,2.05
2019-05-25T21:28:44.250Z,1.77
2019-05-25T21:31:12.830Z,2.02
2019-05-25T21:33:41.331Z,1.80
2019-05-25T21:36:09.761Z,2.15
2019-05-25T21:38:38.299Z,2.27
2019-05-25T21:41:06.726Z,2.30
2019-05-25T21:43:35.140Z,2.25
2019-05-25T21:46:03.594Z,2.35
2019-05-25T21:48:32.321Z,1.92
2019-05-25T21:51:00.739Z,2.30
2019-05-25T21:53:29.352Z,2.37
2019-05-25T21:55:57.816Z,2.40
2019-05-25T21:58:26.231Z,2.50
2019-05-25T22:00:54.768Z,2.55
2019-05-25T22:03:23.194Z,2.22
2019-05-25T22:05:51.740Z,2.50
2019-05-25T22:08:20.239Z,2.45
2019-05-25T22:10:48.659Z,2.35
2019-05-25T22:13:27.843Z,2.62
2019-05-25T22:15:47.609Z,2.90
2019-05-25T22:18:16.066Z,2.90
2019-05-25T22:20:44.495Z,2.72
2019-05-25T22:23:16.356Z,2.58
2019-05-25T22:25:44.792Z,3.08
2019-05-25T22:28:13.265Z,3.05
2019-05-25T22:30:41.716Z,3.10
2019-05-25T22:33:10.151Z,2.87
2019-05-25T22:35:38.920Z,2.98
2019-05-25T22:38:07.446Z,2.95
2019-05-25T22:40:35.904Z,2.90
2019-05-25T22:43:04.401Z,2.80
2019-05-25T22:45:32.932Z,2.85
2019-05-25T22:48:01.407Z,3.20
2019-05-25T22:50:29.820Z,3.20
2019-05-25T22:52:58.507Z,3.10
2019-05-25T22:55:27.206Z,3.50
2019-05-25T22:57:55.629Z,3.12
2019-05-25T23:00:24.248Z,3.12
2019-05-25T23:02:52.680Z,2.95
2019-05-25T23:05:21.122Z,3.10
2019-05-25T23:07:49.923Z,3.60
2019-05-25T23:10:19.033Z,3.10
2019-05-25T23:12:47.474Z,3.20
2019-05-25T23:15:16.472Z,3.40
2019-05-25T23:17:44.913Z,3.22
2019-05-25T23:20:13.731Z,3.33
2019-05-25T23:22:42.290Z,3.62
2019-05-25T23:25:11.040Z,4.00
2019-05-25T23:27:39.639Z,3.47
2019-05-25T23:30:09.168Z,3.90
2019-05-25T23:32:37.617Z,3.47
2019-05-25T23:35:06.608Z,3.52
2019-05-25T23:37:35.070Z,3.47
2019-05-25T23:40:07.434Z,3.42
2019-05-25T23:42:36.004Z,3.95
2019-05-25T23:45:06.278Z,4.10
2019-05-25T23:47:35.013Z,4.53
2019-05-25T23:50:05.449Z,3.92
2019-05-25T23:52:33.923Z,3.37
2019-05-25T23:55:05.246Z,3.45
2019-05-25T23:57:32.992Z,3.30
